createdAt,value
2023-12-03T00:00:22.281Z,93618.72
2023-12-03T00:02:50.525Z,93616.34
2023-12-03T00:05:19.068Z,93615.84
2023-12-03T00:07:48.067Z,93622.28
2023-12-03T00:10:19.184Z,93634.59
2023-12-03T00:12:47.432Z,93619.53
2023-12-03T00:15:17.736Z,93627.44
2023-12-03T00:17:48.310Z,93643.13
2023-12-03T00:20:16.603Z,93635.66
2023-12-03T00:22:44.817Z,93643.25
2023-12-03T00:25:13.161Z,93632.66
2023-12-03T00:27:41.424Z,93617.38
2023-12-03T00:30:10.907Z,93640.97
2023-12-03T00:32:43.082Z,93648.69
2023-12-03T00:35:12.835Z,93642.44
2023-12-03T00:37:41.294Z,93642.75
2023-12-03T00:40:11.659Z,93645.28
2023-12-03T00:42:39.900Z,93638.91
2023-12-03T00:45:08.960Z,93631.72
2023-12-03T00:47:37.259Z,93645.28
2023-12-03T00:50:07.719Z,93650.41
2023-12-03T00:52:35.925Z,93666.59
2023-12-03T00:55:04.954Z,93645.94
2023-12-03T00:57:33.721Z,93663.28
2023-12-03T01:00:02.555Z,93663.38
2023-12-03T01:02:30.859Z,93668.88
2023-12-03T01:04:59.258Z,93660.09
2023-12-03T01:07:29.078Z,93665.31
2023-12-03T01:09:58.482Z,93659.28
2023-12-03T01:12:26.763Z,93668.19
2023-12-03T01:14:54.901Z,93666.00
2023-12-03T01:17:23.056Z,93671.81
2023-12-03T01:19:52.017Z,93675.91
2023-12-03T01:22:20.241Z,93663.28
2023-12-03T01:24:49.856Z,93673.78
2023-12-03T01:27:18.218Z,93672.63
2023-12-03T01:29:48.524Z,93690.63
2023-12-03T01:32:16.830Z,93677.38
2023-12-03T01:34:45.025Z,93669.06
2023-12-03T01:37:13.308Z,93671.59
2023-12-03T01:39:41.484Z,93670.78
2023-12-03T01:42:11.071Z,93667.72
2023-12-03T01:44:39.355Z,93664.16
2023-12-03T01:47:08.097Z,93673.19
2023-12-03T01:49:38.007Z,93664.41
2023-12-03T01:52:06.433Z,93666.34
2023-12-03T01:54:37.150Z,93665.09
2023-12-03T01:57:05.752Z,93658.56
2023-12-03T01:59:35.740Z,93658.81
2023-12-03T02:02:04.088Z,93671.34
2023-12-03T02:04:32.417Z,93664.66
2023-12-03T02:07:00.705Z,93660.91
2023-12-03T02:09:30.529Z,93683.00
2023-12-03T02:11:58.940Z,93672.75
2023-12-03T02:14:27.096Z,93659.28
2023-12-03T02:16:56.584Z,93660.91
2023-12-03T02:19:24.843Z,93650.16
2023-12-03T02:21:53.170Z,93654.16
2023-12-03T02:24:22.791Z,93645.59
2023-12-03T02:26:50.955Z,93652.13
2023-12-03T02:29:19.252Z,93653.13
2023-12-03T02:31:47.399Z,93651.88
2023-12-03T02:34:16.112Z,93665.91
2023-12-03T02:36:44.472Z,93661.53
2023-12-03T02:39:12.750Z,93643.91
2023-12-03T02:41:42.561Z,93671.59
2023-12-03T02:44:11.375Z,93672.28
2023-12-03T02:46:39.583Z,93659.16
2023-12-03T02:49:07.909Z,93663.72
2023-12-03T02:51:36.092Z,93678.88
2023-12-03T02:54:04.372Z,93691.34
2023-12-03T02:56:32.736Z,93685.97
2023-12-03T02:59:02.288Z,93687.78
2023-12-03T03:01:30.403Z,93694.06
2023-12-03T03:03:58.671Z,93679.03
2023-12-03T03:06:26.934Z,93698.50
2023-12-03T03:08:55.104Z,93689.75
2023-12-03T03:11:23.418Z,93684.28
2023-12-03T03:13:51.541Z,93691.72
2023-12-03T03:16:21.272Z,93708.34
2023-12-03T03:18:51.120Z,93703.66
2023-12-03T03:21:19.377Z,93711.66
2023-12-03T03:23:47.583Z,93712.41
2023-12-03T03:26:15.860Z,93715.88
2023-12-03T03:28:43.982Z,93708.69
2023-12-03T03:31:12.285Z,93716.44
2023-12-03T03:33:41.987Z,93718.72
2023-12-03T03:36:11.636Z,93719.28
2023-12-03T03:38:39.831Z,93722.00
2023-12-03T03:41:08.566Z,93742.31
2023-12-03T03:43:36.724Z,93757.75
2023-12-03T03:46:05.418Z,93747.25
2023-12-03T03:48:33.992Z,93744.41
2023-12-03T03:51:03.633Z,93748.59
2023-12-03T03:53:31.799Z,93762.63
2023-12-03T03:55:59.970Z,93762.41
2023-12-03T03:58:28.066Z,93773.50
2023-12-03T04:00:56.295Z,93780.16
2023-12-03T04:03:24.551Z,93779.63
2023-12-03T04:05:53.697Z,93784.78
2023-12-03T04:08:23.213Z,93792.59
2023-12-03T04:10:51.403Z,93783.22
2023-12-03T04:13:19.597Z,93790.31
2023-12-03T04:16:06.248Z,93801.13
2023-12-03T04:18:36.762Z,93799.97
2023-12-03T04:21:07.305Z,93812.38
2023-12-03T04:23:36.846Z,93804.75
2023-12-03T04:26:09.896Z,93806.34
2023-12-03T04:28:42.233Z,93816.44
2023-12-03T04:31:23.400Z,93826.09
2023-12-03T04:33:52.160Z,93831.16
2023-12-03T04:36:21.092Z,93823.00
2023-12-03T04:38:50.770Z,93834.25
2023-12-03T04:41:19.252Z,93849.38
2023-12-03T04:43:47.656Z,93841.38
2023-12-03T04:46:15.922Z,93854.84
2023-12-03T04:48:44.576Z,93849.88
2023-12-03T04:51:14.443Z,93860.56
2023-12-03T04:53:43.298Z,93875.25
2023-12-03T04:56:13.267Z,93866.47
2023-12-03T04:58:41.449Z,93874.91
2023-12-03T05:01:09.693Z,93875.13
2023-12-03T05:03:38.000Z,93886.59
2023-12-03T05:06:10.131Z,93895.00
2023-12-03T05:08:38.356Z,93898.38
2023-12-03T05:11:07.274Z,93905.94
2023-12-03T05:13:37.146Z,93911.16
2023-12-03T05:16:06.652Z,93926.94
2023-12-03T05:18:36.732Z,93924.94
2023-12-03T05:21:05.692Z,93925.13
2023-12-03T05:23:33.878Z,93923.72
2023-12-03T05:26:02.051Z,93921.09
2023-12-03T05:28:30.268Z,93920.94
2023-12-03T05:30:59.885Z,93906.31
2023-12-03T05:33:28.270Z,93927.38
2023-12-03T05:35:56.424Z,93934.44
2023-12-03T05:38:24.670Z,93932.03
2023-12-03T05:40:52.868Z,93937.41
2023-12-03T05:43:21.297Z,93935.19
2023-12-03T05:45:49.490Z,93933.06
2023-12-03T05:48:19.508Z,93937.69
2023-12-03T05:50:48.562Z,93946.91
2023-12-03T05:53:16.700Z,93952.13
2023-12-03T05:55:44.959Z,93958.56
2023-12-03T05:58:13.103Z,93966.75
2023-12-03T06:00:41.193Z,93966.59
2023-12-03T06:03:09.384Z,93966.56
2023-12-03T06:05:39.391Z,93964.16
2023-12-03T06:08:07.626Z,93972.19
2023-12-03T06:10:39.343Z,93981.59
2023-12-03T06:13:07.613Z,93989.84
2023-12-03T06:15:36.014Z,93988.81
2023-12-03T06:18:04.255Z,93990.63
2023-12-03T06:20:32.492Z,93991.78
2023-12-03T06:23:02.128Z,93988.19
2023-12-03T06:25:30.279Z,94002.25
2023-12-03T06:27:59.293Z,94005.06
2023-12-03T06:30:27.462Z,94001.06
2023-12-03T06:32:56.492Z,94012.09
2023-12-03T06:35:24.868Z,94004.88
2023-12-03T06:37:53.120Z,94008.69
2023-12-03T06:40:22.651Z,94015.50
2023-12-03T06:42:50.888Z,94019.13
2023-12-03T06:45:19.027Z,94023.13
2023-12-03T06:47:47.247Z,94026.75
2023-12-03T06:50:15.454Z,94031.53
2023-12-03T06:52:43.656Z,94035.19
2023-12-03T06:55:11.932Z,94049.59
2023-12-03T06:57:41.556Z,94047.38
2023-12-03T07:00:10.994Z,94041.50
2023-12-03T07:02:39.289Z,94035.91
2023-12-03T07:05:08.694Z,94049.88
2023-12-03T07:07:36.864Z,94053.78
2023-12-03T07:10:05.835Z,94059.72
2023-12-03T07:12:34.140Z,94062.19
2023-12-03T07:15:03.855Z,94073.72
2023-12-03T07:17:32.057Z,94074.03
2023-12-03T07:20:00.357Z,94060.97
2023-12-03T07:22:28.573Z,94065.09
2023-12-03T07:24:56.814Z,94075.66
2023-12-03T07:27:25.050Z,94067.94
2023-12-03T07:29:56.608Z,94071.53
2023-12-03T07:32:26.558Z,94081.72
2023-12-03T07:34:55.286Z,94088.22
2023-12-03T07:37:23.684Z,94092.31
2023-12-03T07:39:51.791Z,94091.78
2023-12-03T07:42:20.020Z,94095.91
2023-12-03T07:44:48.715Z,94101.78
2023-12-03T07:47:16.900Z,94091.75
2023-12-03T07:49:46.872Z,94111.94
2023-12-03T07:52:15.138Z,94112.75
2023-12-03T07:54:44.240Z,94115.09
2023-12-03T07:57:12.830Z,94134.25
2023-12-03T07:59:41.826Z,94128.09
2023-12-03T08:02:10.014Z,94131.22
2023-12-03T08:04:38.243Z,94130.72
2023-12-03T08:07:08.034Z,94156.66
2023-12-03T08:09:36.407Z,94142.94
2023-12-03T08:12:04.854Z,94155.28
2023-12-03T08:14:33.052Z,94171.34
2023-12-03T08:17:01.231Z,94153.75
2023-12-03T08:19:29.534Z,94181.91
2023-12-03T08:21:57.809Z,94172.22
2023-12-03T08:24:27.392Z,94191.59
2023-12-03T08:26:57.126Z,94196.31
2023-12-03T08:29:25.677Z,94191.03
2023-12-03T08:31:54.254Z,94205.63
2023-12-03T08:34:23.141Z,94183.34
2023-12-03T08:36:51.909Z,94193.06
2023-12-03T08:39:21.130Z,94205.75
2023-12-03T08:41:51.576Z,94204.47
2023-12-03T08:44:20.373Z,94201.72
2023-12-03T08:46:49.289Z,94220.81
2023-12-03T08:49:19.545Z,94210.41
2023-12-03T08:51:52.838Z,94218.91
2023-12-03T08:54:24.490Z,94212.81
2023-12-03T08:56:55.659Z,94222.22
2023-12-03T08:59:26.585Z,94208.22
2023-12-03T09:01:56.324Z,94218.69
2023-12-03T09:04:25.599Z,94188.16
2023-12-03T09:06:55.021Z,94218.72
2023-12-03T09:09:24.900Z,94216.31
2023-12-03T09:11:55.509Z,94214.75
2023-12-03T09:14:26.566Z,94203.59
2023-12-03T09:16:55.690Z,94215.78
2023-12-03T09:19:26.906Z,94209.38
2023-12-03T09:21:56.441Z,94236.06
2023-12-03T09:24:25.792Z,94245.59
2023-12-03T09:26:56.403Z,94228.66
2023-12-03T09:29:25.706Z,94256.66
2023-12-03T09:31:57.026Z,94255.78
2023-12-03T09:34:26.697Z,94254.97
2023-12-03T09:36:55.854Z,94274.84
2023-12-03T09:39:25.882Z,94261.75
2023-12-03T09:41:58.915Z,94251.97
2023-12-03T09:44:30.555Z,94271.91
2023-12-03T09:47:00.672Z,94252.41
2023-12-03T09:49:32.430Z,94250.63
2023-12-03T09:52:02.614Z,94268.22
2023-12-03T09:54:34.104Z,94266.81
2023-12-03T09:57:11.680Z,94243.03
2023-12-03T09:59:47.391Z,94263.78
2023-12-03T10:02:18.547Z,94246.78
2023-12-03T10:04:48.273Z,94287.38
2023-12-03T10:07:18.373Z,94307.06
2023-12-03T10:09:47.769Z,94275.78
2023-12-03T10:12:21.520Z,94298.81
2023-12-03T10:14:52.158Z,94319.22
2023-12-03T10:17:24.834Z,94305.91
2023-12-03T10:19:54.062Z,94310.28
2023-12-03T10:22:34.818Z,94330.31
2023-12-03T10:25:04.755Z,94321.94
2023-12-03T10:27:37.263Z,94318.72
2023-12-03T10:30:08.633Z,94331.00
2023-12-03T10:32:37.897Z,94341.03
2023-12-03T10:35:10.040Z,94323.72
2023-12-03T10:37:42.270Z,94339.56
2023-12-03T10:40:13.414Z,94341.72
2023-12-03T10:42:44.841Z,94352.94
2023-12-03T10:45:15.468Z,94332.91
2023-12-03T10:47:45.449Z,94336.28
2023-12-03T10:50:16.024Z,94344.66
2023-12-03T10:52:45.296Z,94343.72
2023-12-03T10:55:16.397Z,94327.75
2023-12-03T10:57:58.056Z,94313.44
2023-12-03T11:00:32.911Z,94316.28
2023-12-03T11:03:09.873Z,94317.47
2023-12-03T11:05:46.628Z,94337.63
2023-12-03T11:08:17.494Z,94343.97
2023-12-03T11:10:47.570Z,94339.13
2023-12-03T11:13:22.787Z,94316.94
2023-12-03T11:15:57.697Z,94315.88
2023-12-03T11:18:30.639Z,94326.03
2023-12-03T11:21:12.503Z,94345.50
2023-12-03T11:24:01.091Z,94358.75
2023-12-03T11:26:30.799Z,94375.31
2023-12-03T11:29:03.030Z,94336.81
2023-12-03T11:31:32.043Z,94392.47
2023-12-03T11:34:04.241Z,94385.69
2023-12-03T11:36:50.883Z,94377.72
2023-12-03T11:39:40.738Z,94397.97
2023-12-03T11:42:14.168Z,94378.81
2023-12-03T11:44:44.762Z,94430.75
2023-12-03T11:47:16.132Z,94396.53
2023-12-03T11:49:44.618Z,94394.38
2023-12-03T11:52:12.961Z,94375.31
2023-12-03T11:54:56.882Z,94387.50
2023-12-03T11:57:26.680Z,94414.66
2023-12-03T11:59:56.746Z,94420.22
2023-12-03T12:02:25.077Z,94414.75
2023-12-03T12:04:53.443Z,94437.50
2023-12-03T12:07:22.896Z,94430.72
2023-12-03T12:09:51.763Z,94425.53
2023-12-03T12:12:20.450Z,94416.84
2023-12-03T12:14:49.823Z,94430.41
2023-12-03T12:17:19.467Z,94453.56
2023-12-03T12:19:48.437Z,94482.69
2023-12-03T12:22:17.525Z,94425.66
2023-12-03T12:24:46.978Z,94435.03
2023-12-03T12:27:16.183Z,94441.81
2023-12-03T12:29:44.689Z,94455.97
2023-12-03T12:32:12.924Z,94450.72
2023-12-03T12:34:42.734Z,94449.69
2023-12-03T12:37:11.274Z,94461.44
2023-12-03T12:39:39.558Z,94484.06
2023-12-03T12:42:08.375Z,94489.66
2023-12-03T12:44:46.769Z,94480.50
2023-12-03T12:47:19.693Z,94519.03
2023-12-03T12:49:58.379Z,94523.72
2023-12-03T12:52:26.944Z,94499.75
2023-12-03T12:54:59.239Z,94498.81
2023-12-03T12:57:32.495Z,94515.81
2023-12-03T13:00:00.787Z,94508.59
2023-12-03T13:02:29.038Z,94520.94
2023-12-03T13:04:59.116Z,94507.56
2023-12-03T13:07:27.366Z,94542.94
2023-12-03T13:09:56.885Z,94531.38
2023-12-03T13:12:25.907Z,94547.91
2023-12-03T13:14:54.261Z,94542.09
2023-12-03T13:17:22.810Z,94550.59
2023-12-03T13:19:51.227Z,94552.34
2023-12-03T13:22:21.879Z,94542.63
2023-12-03T13:24:51.660Z,94523.56
2023-12-03T13:27:20.188Z,94526.47
2023-12-03T13:29:50.831Z,94523.44
2023-12-03T13:32:19.259Z,94535.53
2023-12-03T13:34:47.508Z,94529.34
2023-12-03T13:37:15.685Z,94544.03
2023-12-03T13:39:45.370Z,94571.34
2023-12-03T13:42:16.118Z,94555.53
2023-12-03T13:44:44.509Z,94564.00
2023-12-03T13:47:12.743Z,94560.63
2023-12-03T13:49:40.985Z,94551.59
2023-12-03T13:52:09.790Z,94555.06
2023-12-03T13:54:38.947Z,94579.03
2023-12-03T13:57:08.592Z,94577.81
2023-12-03T13:59:36.803Z,94575.00
2023-12-03T14:02:06.643Z,94577.09
2023-12-03T14:04:34.900Z,94574.88
2023-12-03T14:07:03.290Z,94560.94
2023-12-03T14:09:31.698Z,94568.63
2023-12-03T14:11:59.794Z,94591.09
2023-12-03T14:14:29.383Z,94575.59
2023-12-03T14:16:59.091Z,94597.34
2023-12-03T14:19:27.861Z,94586.56
2023-12-03T14:21:56.804Z,94580.28
2023-12-03T14:24:25.172Z,94614.72
2023-12-03T14:26:53.421Z,94611.22
2023-12-03T14:29:22.160Z,94605.88
2023-12-03T14:31:51.832Z,94616.34
2023-12-03T14:34:20.422Z,94621.00
2023-12-03T14:36:48.891Z,94610.97
2023-12-03T14:39:18.566Z,94653.66
2023-12-03T14:41:46.756Z,94640.97
2023-12-03T14:44:15.074Z,94664.84
2023-12-03T14:46:43.462Z,94649.34
2023-12-03T14:49:13.135Z,94651.47
2023-12-03T14:51:41.618Z,94658.75
2023-12-03T14:54:09.872Z,94668.91
2023-12-03T14:56:38.043Z,94664.91
2023-12-03T14:59:07.577Z,94673.63
2023-12-03T15:01:36.700Z,94681.56
2023-12-03T15:04:05.495Z,94663.63
2023-12-03T15:06:35.476Z,94676.69
2023-12-03T15:09:04.028Z,94670.75
2023-12-03T15:11:32.177Z,94653.69
2023-12-03T15:14:00.523Z,94666.03
2023-12-03T15:16:30.152Z,94678.72
2023-12-03T15:18:58.612Z,94679.75
2023-12-03T15:21:27.504Z,94674.59
2023-12-03T15:23:57.203Z,94698.75
2023-12-03T15:26:25.453Z,94679.09
2023-12-03T15:28:53.701Z,94674.47
2023-12-03T15:31:22.024Z,94676.31
2023-12-03T15:33:50.361Z,94680.03
2023-12-03T15:36:18.600Z,94691.19
2023-12-03T15:38:46.986Z,94683.81
2023-12-03T15:41:17.724Z,94689.56
2023-12-03T15:43:47.880Z,94708.41
2023-12-03T15:46:16.398Z,94682.00
2023-12-03T15:48:45.018Z,94690.03
2023-12-03T15:51:13.381Z,94700.53
2023-12-03T15:53:41.634Z,94703.78
2023-12-03T15:56:11.123Z,94703.00
2023-12-03T15:58:41.014Z,94693.66
2023-12-03T16:01:12.378Z,94693.19
2023-12-03T16:03:41.552Z,94715.19
2023-12-03T16:06:10.928Z,94677.44
2023-12-03T16:08:40.096Z,94694.72
2023-12-03T16:11:09.228Z,94704.25
2023-12-03T16:13:37.760Z,94704.91
2023-12-03T16:16:09.256Z,94714.25
2023-12-03T16:18:37.759Z,94716.47
2023-12-03T16:21:06.277Z,94730.78
2023-12-03T16:23:35.271Z,94730.28
2023-12-03T16:26:03.469Z,94753.69
2023-12-03T16:28:31.829Z,94733.75
2023-12-03T16:31:00.769Z,94736.75
2023-12-03T16:33:30.740Z,94730.34
2023-12-03T16:35:59.284Z,94736.22
2023-12-03T16:38:27.633Z,94744.25
2023-12-03T16:40:56.491Z,94751.56
2023-12-03T16:43:24.754Z,94734.38
2023-12-03T16:45:53.177Z,94723.31
2023-12-03T16:48:23.370Z,94741.94
2023-12-03T16:50:53.577Z,94773.84
2023-12-03T16:53:21.776Z,94745.22
2023-12-03T16:55:50.466Z,94761.91
2023-12-03T16:58:18.653Z,94742.19
2023-12-03T17:00:46.855Z,94754.28
2023-12-03T17:03:15.154Z,94769.41
2023-12-03T17:05:43.887Z,94749.69
2023-12-03T17:08:14.246Z,94764.50
2023-12-03T17:10:42.398Z,94765.69
2023-12-03T17:13:14.986Z,94779.09
2023-12-03T17:15:45.922Z,94779.31
2023-12-03T17:18:14.293Z,94773.47
2023-12-03T17:20:42.851Z,94756.94
2023-12-03T17:23:11.272Z,94786.50
2023-12-03T17:25:40.885Z,94793.13
2023-12-03T17:28:09.208Z,94779.25
2023-12-03T17:30:37.479Z,94785.88
2023-12-03T17:33:05.842Z,94795.38
2023-12-03T17:35:34.205Z,94772.28
2023-12-03T17:38:02.432Z,94775.78
2023-12-03T17:40:30.757Z,94805.53
2023-12-03T17:43:01.207Z,94819.97
2023-12-03T17:45:49.600Z,94818.13
2023-12-03T17:48:18.459Z,94800.94
2023-12-03T17:50:47.808Z,94811.56
2023-12-03T17:53:16.815Z,94778.78
2023-12-03T17:55:45.855Z,94760.50
2023-12-03T17:58:17.320Z,94782.38
2023-12-03T18:00:46.792Z,94798.22
2023-12-03T18:03:16.197Z,94809.34
2023-12-03T18:05:49.317Z,94811.31
2023-12-03T18:08:18.457Z,94793.72
2023-12-03T18:10:56.865Z,94830.28
2023-12-03T18:13:27.256Z,94784.00
2023-12-03T18:15:56.120Z,94794.41
2023-12-03T18:18:24.950Z,94807.16
2023-12-03T18:20:56.503Z,94792.16
2023-12-03T18:23:26.901Z,94773.75
2023-12-03T18:26:00.318Z,94797.84
2023-12-03T18:28:37.756Z,94820.66
2023-12-03T18:31:21.179Z,94822.09
2023-12-03T18:33:53.439Z,94769.44
2023-12-03T18:36:22.174Z,94810.19
2023-12-03T18:38:51.891Z,94808.63
2023-12-03T18:41:24.008Z,94830.13
2023-12-03T18:43:57.040Z,94792.59
2023-12-03T18:46:29.226Z,94817.97
2023-12-03T18:49:00.124Z,94816.03
2023-12-03T18:51:30.511Z,94809.91
2023-12-03T18:53:59.885Z,94846.50
2023-12-03T18:56:32.089Z,94822.66
2023-12-03T18:59:04.607Z,94822.34
2023-12-03T19:01:33.002Z,94855.38
2023-12-03T19:04:08.402Z,94823.47
2023-12-03T19:06:39.257Z,94817.56
2023-12-03T19:09:11.117Z,94828.03
2023-12-03T19:11:39.913Z,94842.00
2023-12-03T19:14:13.198Z,94831.25
2023-12-03T19:16:44.261Z,94808.56
2023-12-03T19:19:13.329Z,94850.28
2023-12-03T19:21:43.773Z,94838.63
2023-12-03T19:24:13.484Z,94844.44
2023-12-03T19:26:44.630Z,94810.53
2023-12-03T19:29:14.339Z,94843.00
2023-12-03T19:31:48.479Z,94879.03
2023-12-03T19:34:17.717Z,94844.31
2023-12-03T19:36:46.013Z,94835.41
2023-12-03T19:39:14.340Z,94853.22
2023-12-03T19:41:44.390Z,94857.28
2023-12-03T19:44:14.206Z,94863.19
2023-12-03T19:46:42.682Z,94852.84
2023-12-03T19:49:14.043Z,94829.97
2023-12-03T19:51:45.926Z,94877.22
2023-12-03T19:54:15.355Z,94849.84
2023-12-03T19:56:43.839Z,94869.50
2023-12-03T19:59:14.231Z,94880.03
2023-12-03T20:01:42.633Z,94858.16
2023-12-03T20:04:11.066Z,94878.72
2023-12-03T20:06:39.400Z,94874.72
2023-12-03T20:09:08.307Z,94884.81
2023-12-03T20:11:36.781Z,94883.47
2023-12-03T20:14:05.688Z,94883.72
2023-12-03T20:16:35.382Z,94882.22
2023-12-03T20:19:05.262Z,94893.97
2023-12-03T20:21:33.594Z,94879.38
2023-12-03T20:24:02.513Z,94890.59
2023-12-03T20:26:32.632Z,94871.78
2023-12-03T20:29:03.102Z,94863.91
2023-12-03T20:31:33.355Z,94889.75
2023-12-03T20:34:03.290Z,94896.72
2023-12-03T20:36:37.550Z,94883.44
2023-12-03T20:39:06.775Z,94902.84
2023-12-03T20:41:35.044Z,94873.47
2023-12-03T20:44:03.973Z,94930.09
2023-12-03T20:46:32.214Z,94916.91
2023-12-03T20:49:01.032Z,94910.47
2023-12-03T20:51:31.087Z,94854.88
2023-12-03T20:53:59.448Z,94911.94
2023-12-03T20:56:27.880Z,94920.97
2023-12-03T20:58:56.624Z,94942.94
2023-12-03T21:01:26.735Z,94931.13
2023-12-03T21:03:55.563Z,94950.16
2023-12-03T21:06:23.913Z,94940.59
2023-12-03T21:08:55.614Z,94952.34
2023-12-03T21:11:23.849Z,94956.16
2023-12-03T21:13:52.080Z,94928.13
2023-12-03T21:16:20.295Z,94912.66
2023-12-03T21:18:48.673Z,94923.50
2023-12-03T21:21:18.092Z,94940.69
2023-12-03T21:23:46.204Z,94920.81
2023-12-03T21:26:15.800Z,94931.31
2023-12-03T21:28:45.461Z,94965.34
2023-12-03T21:31:13.686Z,94957.94
2023-12-03T21:33:42.774Z,94947.69
2023-12-03T21:36:12.169Z,94971.69
2023-12-03T21:38:40.338Z,94941.13
2023-12-03T21:41:09.145Z,94923.72
2023-12-03T21:43:38.670Z,94941.41
2023-12-03T21:46:07.457Z,94925.81
2023-12-03T21:48:37.152Z,94956.59
2023-12-03T21:51:05.638Z,94955.75
2023-12-03T21:53:33.745Z,94949.19
2023-12-03T21:56:02.027Z,94952.50
2023-12-03T21:58:30.398Z,94958.94
2023-12-03T22:00:59.963Z,94966.47
2023-12-03T22:03:28.210Z,94981.41
2023-12-03T22:05:56.454Z,94963.41
2023-12-03T22:08:24.603Z,94969.88
2023-12-03T22:10:54.253Z,94980.63
2023-12-03T22:13:23.189Z,94986.97
2023-12-03T22:15:52.969Z,94996.94
2023-12-03T22:18:22.555Z,94983.97
2023-12-03T22:20:50.799Z,94988.16
2023-12-03T22:23:19.018Z,94998.16
2023-12-03T22:25:48.437Z,94985.44
2023-12-03T22:28:16.956Z,94999.00
2023-12-03T22:30:45.193Z,94989.72
2023-12-03T22:33:13.870Z,94998.34
2023-12-03T22:35:43.872Z,94998.00
2023-12-03T22:38:12.490Z,94986.88
2023-12-03T22:40:40.659Z,95012.00
2023-12-03T22:43:08.859Z,94976.31
2023-12-03T22:45:37.695Z,95011.13
2023-12-03T22:48:06.996Z,95020.84
2023-12-03T22:50:36.762Z,95018.06
2023-12-03T22:53:06.800Z,94990.19
2023-12-03T22:55:34.996Z,95026.16
2023-12-03T22:58:03.467Z,95017.06
2023-12-03T23:00:33.547Z,94993.94
2023-12-03T23:03:01.723Z,95004.69
2023-12-03T23:05:35.366Z,95035.19
2023-12-03T23:08:08.621Z,95012.53
2023-12-03T23:10:36.785Z,95002.34
2023-12-03T23:13:05.065Z,94999.38
2023-12-03T23:15:33.342Z,95012.53
2023-12-03T23:18:01.694Z,95007.59
2023-12-03T23:20:30.030Z,94985.41
2023-12-03T23:23:03.444Z,94987.75
2023-12-03T23:25:33.086Z,94999.69
2023-12-03T23:28:01.250Z,94988.03
2023-12-03T23:30:29.575Z,94995.97
2023-12-03T23:33:02.527Z,94996.47
2023-12-03T23:35:30.938Z,95015.56
2023-12-03T23:37:59.675Z,94996.81
2023-12-03T23:40:27.801Z,95003.47
2023-12-03T23:42:57.489Z,95009.97
2023-12-03T23:45:25.660Z,95007.13
2023-12-03T23:47:53.779Z,95007.22
2023-12-03T23:50:22.039Z,95010.78
2023-12-03T23:52:50.369Z,95021.63
2023-12-03T23:55:18.521Z,94998.78
2023-12-03T23:57:46.792Z,95036.72
